sensor_id;sensor_type;location;lat;lon;timestamp;P1;durP1;ratioP1;P2;durP2;ratioP2
72584;SDS011;60618;40.084;32.908;2023-08-17T06:30:41;11.23;;;5.20;;
72584;SDS011;60618;40.084;32.908;2023-08-17T06:33:11;11.07;;;5.45;;
72584;SDS011;60618;40.084;32.908;2023-08-17T06:35:38;11.48;;;5.10;;
72584;SDS011;60618;40.084;32.908;2023-08-17T06:38:04;10.38;;;5.03;;
72584;SDS011;60618;40.084;32.908;2023-08-17T06:40:31;11.23;;;5.40;;
72584;SDS011;60618;40.084;32.908;2023-08-17T06:42:58;8.38;;;5.13;;
72584;SDS011;60618;40.084;32.908;2023-08-17T06:45:25;8.77;;;5.10;;
72584;SDS011;60618;40.084;32.908;2023-08-17T06:47:52;12.27;;;7.47;;
72584;SDS011;60618;40.084;32.908;2023-08-17T06:50:19;11.68;;;6.45;;
72584;SDS011;60618;40.084;32.908;2023-08-17T06:52:46;10.73;;;5.90;;
72584;SDS011;60618;40.084;32.908;2023-08-17T06:55:13;10.18;;;6.57;;
72584;SDS011;60618;40.084;32.908;2023-08-17T06:57:40;10.77;;;6.65;;
72584;SDS011;60618;40.084;32.908;2023-08-17T07:00:07;11.13;;;6.03;;
72584;SDS011;60618;40.084;32.908;2023-08-17T07:02:35;15.45;;;5.57;;
72584;SDS011;60618;40.084;32.908;2023-08-17T07:05:18;12.37;;;8.43;;
72584;SDS011;60618;40.084;32.908;2023-08-17T07:07:45;12.55;;;5.75;;
72584;SDS011;60618;40.084;32.908;2023-08-17T07:10:12;11.98;;;5.75;;
72584;SDS011;60618;40.084;32.908;2023-08-17T07:12:39;9.88;;;5.50;;
72584;SDS011;60618;40.084;32.908;2023-08-17T07:15:07;8.38;;;4.72;;
72584;SDS011;60618;40.084;32.908;2023-08-17T07:17:34;12.10;;;5.53;;
72584;SDS011;60618;40.084;32.908;2023-08-17T07:20:01;11.57;;;7.82;;
72584;SDS011;60618;40.084;32.908;2023-08-17T07:22:31;12.00;;;7.63;;
72584;SDS011;60618;40.084;32.908;2023-08-17T07:24:57;14.93;;;5.40;;
72584;SDS011;60618;40.084;32.908;2023-08-17T07:27:25;11.05;;;7.38;;
72584;SDS011;60618;40.084;32.908;2023-08-17T07:29:52;9.40;;;5.40;;
72584;SDS011;60618;40.084;32.908;2023-08-17T07:32:19;10.60;;;6.00;;
72584;SDS011;60618;40.084;32.908;2023-08-17T07:34:46;11.23;;;5.38;;
72584;SDS011;60618;40.084;32.908;2023-08-17T07:37:13;8.00;;;5.00;;
72584;SDS011;60618;40.084;32.908;2023-08-17T07:39:41;9.38;;;4.63;;
72584;SDS011;60618;40.084;32.908;2023-08-17T07:42:08;10.90;;;5.10;;
72584;SDS011;60618;40.084;32.908;2023-08-17T07:44:35;9.13;;;4.80;;
72584;SDS011;60618;40.084;32.908;2023-08-17T07:47:02;15.48;;;5.68;;
72584;SDS011;60618;40.084;32.908;2023-08-17T07:49:29;10.27;;;5.38;;
72584;SDS011;60618;40.084;32.908;2023-08-17T07:51:58;10.13;;;6.22;;
72584;SDS011;60618;40.084;32.908;2023-08-17T07:54:26;9.37;;;5.90;;
72584;SDS011;60618;40.084;32.908;2023-08-17T07:56:52;12.07;;;6.97;;
72584;SDS011;60618;40.084;32.908;2023-08-17T07:59:19;9.88;;;5.82;;
72584;SDS011;60618;40.084;32.908;2023-08-17T08:01:46;32.70;;;7.00;;
72584;SDS011;60618;40.084;32.908;2023-08-17T08:04:13;12.60;;;6.32;;
72584;SDS011;60618;40.084;32.908;2023-08-17T08:06:40;10.77;;;5.90;;
72584;SDS011;60618;40.084;32.908;2023-08-17T08:09:07;9.23;;;5.70;;
72584;SDS011;60618;40.084;32.908;2023-08-17T08:11:34;11.68;;;5.82;;
72584;SDS011;60618;40.084;32.908;2023-08-17T08:14:01;12.93;;;5.80;;
72584;SDS011;60618;40.084;32.908;2023-08-17T08:16:28;11.27;;;6.38;;
72584;SDS011;60618;40.084;32.908;2023-08-17T08:18:55;11.37;;;7.70;;
72584;SDS011;60618;40.084;32.908;2023-08-17T08:21:23;11.90;;;6.28;;
72584;SDS011;60618;40.084;32.908;2023-08-17T08:23:50;16.20;;;6.85;;
72584;SDS011;60618;40.084;32.908;2023-08-17T08:26:16;10.13;;;6.20;;
72584;SDS011;60618;40.084;32.908;2023-08-17T08:28:43;10.45;;;5.82;;
72584;SDS011;60618;40.084;32.908;2023-08-17T08:31:11;9.90;;;5.80;;
72584;SDS011;60618;40.084;32.908;2023-08-17T08:33:38;8.15;;;5.60;;
72584;SDS011;60618;40.084;32.908;2023-08-17T08:36:05;11.05;;;5.50;;
72584;SDS011;60618;40.084;32.908;2023-08-17T08:38:32;11.82;;;6.20;;
72584;SDS011;60618;40.084;32.908;2023-08-17T08:40:59;11.18;;;6.20;;
72584;SDS011;60618;40.084;32.908;2023-08-17T08:43:27;10.83;;;6.53;;
72584;SDS011;60618;40.084;32.908;2023-08-17T08:45:54;12.45;;;5.97;;
72584;SDS011;60618;40.084;32.908;2023-08-17T09:00:54;8.35;;;5.95;;
72584;SDS011;60618;40.084;32.908;2023-08-17T09:03:21;10.23;;;5.80;;
72584;SDS011;60618;40.084;32.908;2023-08-17T09:35:54;7.47;;;6.03;;
72584;SDS011;60618;40.084;32.908;2023-08-17T09:38:26;10.95;;;6.57;;
72584;SDS011;60618;40.084;32.908;2023-08-17T09:40:54;7.55;;;5.45;;
72584;SDS011;60618;40.084;32.908;2023-08-17T09:43:21;9.68;;;6.10;;
72584;SDS011;60618;40.084;32.908;2023-08-17T09:45:49;10.30;;;6.10;;
72584;SDS011;60618;40.084;32.908;2023-08-17T09:48:16;12.48;;;6.88;;
72584;SDS011;60618;40.084;32.908;2023-08-17T09:50:44;10.38;;;6.53;;
72584;SDS011;60618;40.084;32.908;2023-08-17T09:53:13;10.50;;;5.82;;
72584;SDS011;60618;40.084;32.908;2023-08-17T09:55:42;11.60;;;7.63;;
72584;SDS011;60618;40.084;32.908;2023-08-17T09:58:10;11.60;;;8.17;;
72584;SDS011;60618;40.084;32.908;2023-08-17T10:00:37;9.45;;;6.00;;
72584;SDS011;60618;40.084;32.908;2023-08-17T10:03:05;11.05;;;6.25;;
72584;SDS011;60618;40.084;32.908;2023-08-17T10:05:35;10.52;;;6.60;;
72584;SDS011;60618;40.084;32.908;2023-08-17T10:08:06;13.23;;;6.10;;
72584;SDS011;60618;40.084;32.908;2023-08-17T10:10:34;12.53;;;6.20;;
72584;SDS011;60618;40.084;32.908;2023-08-17T10:13:39;10.95;;;5.80;;
72584;SDS011;60618;40.084;32.908;2023-08-17T10:16:02;10.70;;;5.50;;
72584;SDS011;60618;40.084;32.908;2023-08-17T10:18:54;12.27;;;5.70;;
72584;SDS011;60618;40.084;32.908;2023-08-17T10:21:29;12.23;;;5.95;;
72584;SDS011;60618;40.084;32.908;2023-08-17T10:24:02;10.53;;;6.10;;
72584;SDS011;60618;40.084;32.908;2023-08-17T10:26:30;10.27;;;6.22;;
72584;SDS011;60618;40.084;32.908;2023-08-17T10:28:59;25.10;;;6.90;;
72584;SDS011;60618;40.084;32.908;2023-08-17T10:31:38;7.90;;;5.85;;
72584;SDS011;60618;40.084;32.908;2023-08-17T10:34:05;12.45;;;6.50;;
72584;SDS011;60618;40.084;32.908;2023-08-17T10:36:33;12.00;;;6.47;;
72584;SDS011;60618;40.084;32.908;2023-08-17T10:41:46;11.35;;;6.38;;
72584;SDS011;60618;40.084;32.908;2023-08-17T10:44:15;14.00;;;7.63;;
72584;SDS011;60618;40.084;32.908;2023-08-17T10:46:44;12.65;;;7.38;;
72584;SDS011;60618;40.084;32.908;2023-08-17T11:39:39;9.80;;;6.23;;
72584;SDS011;60618;40.084;32.908;2023-08-17T11:42:06;30.45;;;7.30;;
72584;SDS011;60618;40.084;32.908;2023-08-17T11:44:33;11.45;;;6.47;;
72584;SDS011;60618;40.084;32.908;2023-08-17T11:47:00;10.13;;;6.30;;
72584;SDS011;60618;40.084;32.908;2023-08-17T11:49:30;8.85;;;6.30;;
72584;SDS011;60618;40.084;32.908;2023-08-17T11:52:03;8.90;;;6.50;;
72584;SDS011;60618;40.084;32.908;2023-08-17T11:54:32;10.65;;;5.85;;
72584;SDS011;60618;40.084;32.908;2023-08-17T11:56:59;9.85;;;6.20;;
72584;SDS011;60618;40.084;32.908;2023-08-17T11:59:30;15.43;;;6.45;;
72584;SDS011;60618;40.084;32.908;2023-08-17T12:01:57;10.55;;;6.60;;
72584;SDS011;60618;40.084;32.908;2023-08-17T12:04:24;14.03;;;6.90;;
72584;SDS011;60618;40.084;32.908;2023-08-17T12:06:51;13.63;;;6.57;;
72584;SDS011;60618;40.084;32.908;2023-08-17T12:09:19;12.50;;;6.60;;
72584;SDS011;60618;40.084;32.908;2023-08-17T12:11:48;11.07;;;6.30;;
72584;SDS011;60618;40.084;32.908;2023-08-17T12:14:15;11.77;;;6.28;;
72584;SDS011;60618;40.084;32.908;2023-08-17T12:16:47;10.70;;;5.97;;
72584;SDS011;60618;40.084;32.908;2023-08-17T12:19:15;10.38;;;6.05;;
72584;SDS011;60618;40.084;32.908;2023-08-17T12:21:42;11.90;;;6.40;;
72584;SDS011;60618;40.084;32.908;2023-08-17T12:24:09;11.90;;;6.30;;
72584;SDS011;60618;40.084;32.908;2023-08-17T12:26:36;15.18;;;7.10;;
72584;SDS011;60618;40.084;32.908;2023-08-17T12:29:08;14.17;;;6.63;;
72584;SDS011;60618;40.084;32.908;2023-08-17T12:31:37;16.55;;;6.60;;
72584;SDS011;60618;40.084;32.908;2023-08-17T12:34:05;11.63;;;6.32;;
72584;SDS011;60618;40.084;32.908;2023-08-17T12:36:32;11.88;;;6.45;;
72584;SDS011;60618;40.084;32.908;2023-08-17T12:39:00;11.05;;;6.35;;
72584;SDS011;60618;40.084;32.908;2023-08-17T12:41:29;10.13;;;6.40;;
72584;SDS011;60618;40.084;32.908;2023-08-17T12:43:56;10.63;;;6.22;;
72584;SDS011;60618;40.084;32.908;2023-08-17T12:46:23;11.15;;;6.15;;
72584;SDS011;60618;40.084;32.908;2023-08-17T12:48:50;9.50;;;6.25;;
72584;SDS011;60618;40.084;32.908;2023-08-17T12:51:17;9.20;;;6.32;;
72584;SDS011;60618;40.084;32.908;2023-08-17T12:53:44;11.03;;;6.67;;
72584;SDS011;60618;40.084;32.908;2023-08-17T12:56:15;11.73;;;6.32;;
72584;SDS011;60618;40.084;32.908;2023-08-17T12:58:43;10.95;;;6.30;;
72584;SDS011;60618;40.084;32.908;2023-08-17T13:01:10;15.32;;;6.63;;
72584;SDS011;60618;40.084;32.908;2023-08-17T13:03:37;9.95;;;6.22;;
72584;SDS011;60618;40.084;32.908;2023-08-17T13:06:04;15.87;;;6.47;;
72584;SDS011;60618;40.084;32.908;2023-08-17T13:08:31;10.10;;;6.63;;
72584;SDS011;60618;40.084;32.908;2023-08-17T13:10:59;10.57;;;6.15;;
72584;SDS011;60618;40.084;32.908;2023-08-17T13:13:26;10.45;;;6.28;;
72584;SDS011;60618;40.084;32.908;2023-08-17T13:15:53;16.55;;;6.47;;
72584;SDS011;60618;40.084;32.908;2023-08-17T13:18:20;8.73;;;6.50;;
72584;SDS011;60618;40.084;32.908;2023-08-17T13:20:47;11.25;;;6.25;;
72584;SDS011;60618;40.084;32.908;2023-08-17T13:23:14;14.50;;;5.85;;
72584;SDS011;60618;40.084;32.908;2023-08-17T13:25:41;11.95;;;6.47;;
72584;SDS011;60618;40.084;32.908;2023-08-17T13:28:08;8.70;;;6.22;;
72584;SDS011;60618;40.084;32.908;2023-08-17T13:30:35;11.10;;;6.30;;
72584;SDS011;60618;40.084;32.908;2023-08-17T13:33:02;11.00;;;5.85;;
72584;SDS011;60618;40.084;32.908;2023-08-17T13:35:29;10.75;;;6.40;;
72584;SDS011;60618;40.084;32.908;2023-08-17T13:37:56;13.20;;;6.30;;
72584;SDS011;60618;40.084;32.908;2023-08-17T13:40:23;10.05;;;6.25;;
72584;SDS011;60618;40.084;32.908;2023-08-17T13:42:50;9.20;;;6.10;;
72584;SDS011;60618;40.084;32.908;2023-08-17T13:45:17;10.18;;;6.10;;
72584;SDS011;60618;40.084;32.908;2023-08-17T13:47:44;10.90;;;6.32;;
72584;SDS011;60618;40.084;32.908;2023-08-17T13:50:11;8.88;;;5.72;;
72584;SDS011;60618;40.084;32.908;2023-08-17T13:52:38;8.50;;;5.80;;
72584;SDS011;60618;40.084;32.908;2023-08-17T13:55:05;9.87;;;6.10;;
72584;SDS011;60618;40.084;32.908;2023-08-17T13:57:33;8.10;;;5.60;;
72584;SDS011;60618;40.084;32.908;2023-08-17T14:00:00;12.70;;;6.40;;
72584;SDS011;60618;40.084;32.908;2023-08-17T14:02:27;8.55;;;5.78;;
72584;SDS011;60618;40.084;32.908;2023-08-17T14:04:57;10.07;;;5.95;;
72584;SDS011;60618;40.084;32.908;2023-08-17T14:07:24;10.67;;;5.37;;
72584;SDS011;60618;40.084;32.908;2023-08-17T14:09:50;9.98;;;6.00;;
72584;SDS011;60618;40.084;32.908;2023-08-17T14:12:33;8.68;;;5.82;;
72584;SDS011;60618;40.084;32.908;2023-08-17T14:15:00;9.07;;;6.28;;
72584;SDS011;60618;40.084;32.908;2023-08-17T14:17:27;9.60;;;5.60;;
72584;SDS011;60618;40.084;32.908;2023-08-17T14:19:54;12.53;;;5.87;;
72584;SDS011;60618;40.084;32.908;2023-08-17T14:22:20;9.13;;;5.55;;
72584;SDS011;60618;40.084;32.908;2023-08-17T14:24:47;11.95;;;6.10;;
72584;SDS011;60618;40.084;32.908;2023-08-17T14:27:14;12.90;;;6.03;;
72584;SDS011;60618;40.084;32.908;2023-08-17T14:29:41;10.05;;;5.80;;
72584;SDS011;60618;40.084;32.908;2023-08-17T14:32:13;8.80;;;5.50;;
72584;SDS011;60618;40.084;32.908;2023-08-17T14:34:40;10.30;;;5.60;;
72584;SDS011;60618;40.084;32.908;2023-08-17T14:37:07;9.40;;;5.70;;
72584;SDS011;60618;40.084;32.908;2023-08-17T14:39:34;14.45;;;5.75;;
72584;SDS011;60618;40.084;32.908;2023-08-17T14:42:03;8.68;;;5.30;;
72584;SDS011;60618;40.084;32.908;2023-08-17T14:44:31;9.60;;;5.53;;
72584;SDS011;60618;40.084;32.908;2023-08-17T14:46:58;23.08;;;6.55;;
72584;SDS011;60618;40.084;32.908;2023-08-17T14:49:25;23.27;;;6.63;;
72584;SDS011;60618;40.084;32.908;2023-08-17T14:51:52;10.38;;;5.80;;
72584;SDS011;60618;40.084;32.908;2023-08-17T14:54:19;13.60;;;6.30;;
72584;SDS011;60618;40.084;32.908;2023-08-17T14:56:46;33.63;;;6.43;;
72584;SDS011;60618;40.084;32.908;2023-08-17T14:59:13;22.25;;;6.38;;
72584;SDS011;60618;40.084;32.908;2023-08-17T15:01:40;26.80;;;6.15;;
72584;SDS011;60618;40.084;32.908;2023-08-17T15:04:07;14.45;;;5.10;;
72584;SDS011;60618;40.084;32.908;2023-08-17T15:06:34;13.25;;;4.90;;
72584;SDS011;60618;40.084;32.908;2023-08-17T15:09:07;14.93;;;4.93;;
72584;SDS011;60618;40.084;32.908;2023-08-17T15:11:34;13.68;;;5.20;;
72584;SDS011;60618;40.084;32.908;2023-08-17T15:14:02;19.63;;;5.05;;
72584;SDS011;60618;40.084;32.908;2023-08-17T15:16:29;12.80;;;5.32;;
72584;SDS011;60618;40.084;32.908;2023-08-17T15:18:56;14.27;;;5.10;;
72584;SDS011;60618;40.084;32.908;2023-08-17T15:21:23;10.67;;;4.60;;
72584;SDS011;60618;40.084;32.908;2023-08-17T15:23:50;8.43;;;4.07;;
72584;SDS011;60618;40.084;32.908;2023-08-17T15:26:17;8.50;;;3.70;;
72584;SDS011;60618;40.084;32.908;2023-08-17T15:28:44;8.40;;;4.10;;
72584;SDS011;60618;40.084;32.908;2023-08-17T15:31:11;8.65;;;4.22;;
72584;SDS011;60618;40.084;32.908;2023-08-17T15:33:41;10.37;;;4.57;;
72584;SDS011;60618;40.084;32.908;2023-08-17T15:36:08;16.83;;;5.00;;
72584;SDS011;60618;40.084;32.908;2023-08-17T15:38:35;15.85;;;5.40;;
72584;SDS011;60618;40.084;32.908;2023-08-17T15:41:02;9.20;;;5.00;;
72584;SDS011;60618;40.084;32.908;2023-08-17T15:43:32;11.00;;;4.68;;
72584;SDS011;60618;40.084;32.908;2023-08-17T15:45:58;18.90;;;4.77;;
72584;SDS011;60618;40.084;32.908;2023-08-17T15:48:26;12.10;;;4.80;;
72584;SDS011;60618;40.084;32.908;2023-08-17T15:50:53;13.27;;;4.78;;
72584;SDS011;60618;40.084;32.908;2023-08-17T15:53:20;10.10;;;4.30;;
72584;SDS011;60618;40.084;32.908;2023-08-17T15:55:47;9.15;;;4.40;;
72584;SDS011;60618;40.084;32.908;2023-08-17T15:58:14;9.80;;;4.40;;
72584;SDS011;60618;40.084;32.908;2023-08-17T16:00:41;8.07;;;4.68;;
72584;SDS011;60618;40.084;32.908;2023-08-17T16:03:08;7.55;;;4.40;;
72584;SDS011;60618;40.084;32.908;2023-08-17T16:05:38;11.80;;;4.63;;
72584;SDS011;60618;40.084;32.908;2023-08-17T16:08:06;9.00;;;4.35;;
72584;SDS011;60618;40.084;32.908;2023-08-17T16:10:33;8.57;;;4.17;;
72584;SDS011;60618;40.084;32.908;2023-08-17T16:13:01;5.72;;;3.70;;
72584;SDS011;60618;40.084;32.908;2023-08-17T16:15:28;9.73;;;3.80;;
72584;SDS011;60618;40.084;32.908;2023-08-17T16:17:55;12.95;;;4.78;;
72584;SDS011;60618;40.084;32.908;2023-08-17T16:20:26;9.70;;;4.22;;
72584;SDS011;60618;40.084;32.908;2023-08-17T16:22:53;6.83;;;3.73;;
72584;SDS011;60618;40.084;32.908;2023-08-17T16:25:20;8.73;;;4.10;;
72584;SDS011;60618;40.084;32.908;2023-08-17T16:27:47;9.38;;;4.25;;
72584;SDS011;60618;40.084;32.908;2023-08-17T16:30:14;8.48;;;4.60;;
72584;SDS011;60618;40.084;32.908;2023-08-17T16:32:41;8.90;;;4.10;;
72584;SDS011;60618;40.084;32.908;2023-08-17T16:35:08;6.67;;;4.07;;
72584;SDS011;60618;40.084;32.908;2023-08-17T16:37:35;10.27;;;4.00;;
72584;SDS011;60618;40.084;32.908;2023-08-17T16:40:06;7.93;;;4.25;;
72584;SDS011;60618;40.084;32.908;2023-08-17T16:42:37;20.50;;;4.72;;
72584;SDS011;60618;40.084;32.908;2023-08-17T16:45:03;13.60;;;4.60;;
72584;SDS011;60618;40.084;32.908;2023-08-17T16:47:36;19.47;;;4.80;;
72584;SDS011;60618;40.084;32.908;2023-08-17T16:50:03;13.95;;;4.60;;
72584;SDS011;60618;40.084;32.908;2023-08-17T16:52:30;12.13;;;4.28;;
72584;SDS011;60618;40.084;32.908;2023-08-17T16:54:57;7.47;;;4.00;;
72584;SDS011;60618;40.084;32.908;2023-08-17T16:57:27;7.75;;;3.53;;
72584;SDS011;60618;40.084;32.908;2023-08-17T16:59:55;7.33;;;4.10;;
72584;SDS011;60618;40.084;32.908;2023-08-17T17:02:22;8.93;;;4.10;;
72584;SDS011;60618;40.084;32.908;2023-08-17T17:04:49;24.77;;;5.22;;
72584;SDS011;60618;40.084;32.908;2023-08-17T17:07:16;12.63;;;4.00;;
72584;SDS011;60618;40.084;32.908;2023-08-17T17:09:43;6.55;;;4.25;;
72584;SDS011;60618;40.084;32.908;2023-08-17T17:12:10;14.57;;;4.70;;
72584;SDS011;60618;40.084;32.908;2023-08-17T17:14:38;10.52;;;4.13;;
72584;SDS011;60618;40.084;32.908;2023-08-17T17:17:05;8.98;;;4.50;;
72584;SDS011;60618;40.084;32.908;2023-08-17T17:19:32;11.20;;;4.95;;
72584;SDS011;60618;40.084;32.908;2023-08-17T17:21:59;9.02;;;4.40;;
72584;SDS011;60618;40.084;32.908;2023-08-17T17:24:26;21.87;;;4.67;;
72584;SDS011;60618;40.084;32.908;2023-08-17T17:26:53;12.63;;;3.83;;
72584;SDS011;60618;40.084;32.908;2023-08-17T17:29:20;17.42;;;5.25;;
72584;SDS011;60618;40.084;32.908;2023-08-17T17:31:48;15.10;;;5.05;;
72584;SDS011;60618;40.084;32.908;2023-08-17T17:34:15;11.30;;;3.95;;
72584;SDS011;60618;40.084;32.908;2023-08-17T17:36:41;7.07;;;4.37;;
72584;SDS011;60618;40.084;32.908;2023-08-17T17:39:08;12.80;;;4.70;;
72584;SDS011;60618;40.084;32.908;2023-08-17T17:41:35;10.23;;;4.13;;
72584;SDS011;60618;40.084;32.908;2023-08-17T17:44:02;12.48;;;4.40;;
72584;SDS011;60618;40.084;32.908;2023-08-17T17:46:29;10.52;;;4.55;;
72584;SDS011;60618;40.084;32.908;2023-08-17T17:48:56;9.80;;;4.20;;
72584;SDS011;60618;40.084;32.908;2023-08-17T17:51:23;10.13;;;4.82;;
72584;SDS011;60618;40.084;32.908;2023-08-17T17:53:50;8.45;;;4.80;;
72584;SDS011;60618;40.084;32.908;2023-08-17T17:56:17;9.25;;;4.43;;
72584;SDS011;60618;40.084;32.908;2023-08-17T17:58:44;9.13;;;4.22;;
72584;SDS011;60618;40.084;32.908;2023-08-17T18:01:11;10.70;;;4.47;;
72584;SDS011;60618;40.084;32.908;2023-08-17T18:03:38;7.93;;;4.90;;
72584;SDS011;60618;40.084;32.908;2023-08-17T18:06:05;8.52;;;4.70;;
72584;SDS011;60618;40.084;32.908;2023-08-17T18:08:32;10.60;;;4.57;;
72584;SDS011;60618;40.084;32.908;2023-08-17T18:10:59;9.10;;;4.75;;
72584;SDS011;60618;40.084;32.908;2023-08-17T18:13:26;14.00;;;4.90;;
72584;SDS011;60618;40.084;32.908;2023-08-17T18:15:53;9.82;;;4.65;;
72584;SDS011;60618;40.084;32.908;2023-08-17T18:18:20;8.65;;;4.55;;
72584;SDS011;60618;40.084;32.908;2023-08-17T18:20:47;14.30;;;4.78;;
72584;SDS011;60618;40.084;32.908;2023-08-17T18:23:14;11.77;;;4.93;;
72584;SDS011;60618;40.084;32.908;2023-08-17T18:25:41;8.37;;;5.30;;
72584;SDS011;60618;40.084;32.908;2023-08-17T18:28:08;10.32;;;5.30;;
72584;SDS011;60618;40.084;32.908;2023-08-17T18:30:35;13.93;;;5.45;;
72584;SDS011;60618;40.084;32.908;2023-08-17T18:33:02;9.10;;;5.20;;
72584;SDS011;60618;40.084;32.908;2023-08-17T18:35:29;12.10;;;4.88;;
72584;SDS011;60618;40.084;32.908;2023-08-17T18:37:56;9.10;;;4.80;;
72584;SDS011;60618;40.084;32.908;2023-08-17T18:40:23;10.25;;;5.03;;
72584;SDS011;60618;40.084;32.908;2023-08-17T18:42:50;10.82;;;4.85;;
72584;SDS011;60618;40.084;32.908;2023-08-17T18:45:17;10.98;;;4.80;;
72584;SDS011;60618;40.084;32.908;2023-08-17T18:47:45;9.13;;;4.80;;
72584;SDS011;60618;40.084;32.908;2023-08-17T18:50:12;9.80;;;4.63;;
72584;SDS011;60618;40.084;32.908;2023-08-17T18:52:40;13.63;;;4.85;;
72584;SDS011;60618;40.084;32.908;2023-08-17T18:55:08;9.13;;;5.00;;
72584;SDS011;60618;40.084;32.908;2023-08-17T18:57:35;14.20;;;5.40;;
72584;SDS011;60618;40.084;32.908;2023-08-17T19:00:06;17.85;;;5.55;;
72584;SDS011;60618;40.084;32.908;2023-08-17T19:02:35;12.97;;;5.43;;
72584;SDS011;60618;40.084;32.908;2023-08-17T19:05:02;10.75;;;4.63;;
72584;SDS011;60618;40.084;32.908;2023-08-17T19:07:29;11.20;;;5.03;;
72584;SDS011;60618;40.084;32.908;2023-08-17T19:09:56;10.77;;;4.85;;
72584;SDS011;60618;40.084;32.908;2023-08-17T19:12:23;12.65;;;5.00;;
72584;SDS011;60618;40.084;32.908;2023-08-17T19:14:50;13.07;;;5.00;;
72584;SDS011;60618;40.084;32.908;2023-08-17T19:17:17;11.07;;;4.97;;
72584;SDS011;60618;40.084;32.908;2023-08-17T19:19:45;13.05;;;4.82;;
72584;SDS011;60618;40.084;32.908;2023-08-17T19:22:13;10.07;;;4.70;;
72584;SDS011;60618;40.084;32.908;2023-08-17T19:24:40;8.90;;;4.88;;
72584;SDS011;60618;40.084;32.908;2023-08-17T19:27:07;12.83;;;5.07;;
72584;SDS011;60618;40.084;32.908;2023-08-17T19:29:34;10.02;;;4.90;;
72584;SDS011;60618;40.084;32.908;2023-08-17T19:32:01;8.10;;;5.05;;
72584;SDS011;60618;40.084;32.908;2023-08-17T19:34:28;23.48;;;6.15;;
72584;SDS011;60618;40.084;32.908;2023-08-17T19:36:56;103.72;;;7.88;;
72584;SDS011;60618;40.084;32.908;2023-08-17T19:39:23;29.23;;;5.83;;
72584;SDS011;60618;40.084;32.908;2023-08-17T19:41:50;10.82;;;5.05;;
72584;SDS011;60618;40.084;32.908;2023-08-17T19:44:17;9.40;;;5.22;;
72584;SDS011;60618;40.084;32.908;2023-08-17T19:46:44;11.48;;;5.20;;
72584;SDS011;60618;40.084;32.908;2023-08-17T19:49:11;8.23;;;5.20;;
72584;SDS011;60618;40.084;32.908;2023-08-17T19:51:39;8.63;;;5.13;;
72584;SDS011;60618;40.084;32.908;2023-08-17T19:54:06;10.18;;;5.57;;
72584;SDS011;60618;40.084;32.908;2023-08-17T19:56:33;9.38;;;5.15;;
72584;SDS011;60618;40.084;32.908;2023-08-17T19:59:00;10.25;;;5.10;;
72584;SDS011;60618;40.084;32.908;2023-08-17T20:01:27;21.85;;;12.68;;
72584;SDS011;60618;40.084;32.908;2023-08-17T20:03:54;16.80;;;10.80;;
72584;SDS011;60618;40.084;32.908;2023-08-17T20:06:22;14.00;;;8.60;;
72584;SDS011;60618;40.084;32.908;2023-08-17T20:08:49;13.73;;;6.85;;
72584;SDS011;60618;40.084;32.908;2023-08-17T20:11:15;10.40;;;6.90;;
72584;SDS011;60618;40.084;32.908;2023-08-17T20:13:42;12.13;;;6.97;;
72584;SDS011;60618;40.084;32.908;2023-08-17T20:16:10;12.17;;;6.67;;
72584;SDS011;60618;40.084;32.908;2023-08-17T20:18:37;11.50;;;7.68;;
72584;SDS011;60618;40.084;32.908;2023-08-17T20:21:06;11.85;;;7.47;;
72584;SDS011;60618;40.084;32.908;2023-08-17T20:23:34;14.00;;;8.15;;
72584;SDS011;60618;40.084;32.908;2023-08-17T20:26:01;11.15;;;8.80;;
72584;SDS011;60618;40.084;32.908;2023-08-17T20:28:28;14.30;;;8.30;;
72584;SDS011;60618;40.084;32.908;2023-08-17T20:30:56;12.60;;;7.90;;
72584;SDS011;60618;40.084;32.908;2023-08-17T20:33:25;13.32;;;7.55;;
72584;SDS011;60618;40.084;32.908;2023-08-17T20:35:53;12.35;;;7.05;;
72584;SDS011;60618;40.084;32.908;2023-08-17T20:38:22;14.02;;;6.93;;
72584;SDS011;60618;40.084;32.908;2023-08-17T20:40:50;9.87;;;6.53;;
72584;SDS011;60618;40.084;32.908;2023-08-17T20:43:18;9.20;;;6.15;;
72584;SDS011;60618;40.084;32.908;2023-08-17T20:45:45;10.52;;;6.40;;
72584;SDS011;60618;40.084;32.908;2023-08-17T20:48:12;9.20;;;5.60;;
72584;SDS011;60618;40.084;32.908;2023-08-17T20:50:39;13.60;;;6.28;;
72584;SDS011;60618;40.084;32.908;2023-08-17T20:53:07;14.10;;;6.53;;
72584;SDS011;60618;40.084;32.908;2023-08-17T20:55:39;9.60;;;6.10;;
72584;SDS011;60618;40.084;32.908;2023-08-17T20:58:07;9.65;;;6.15;;
72584;SDS011;60618;40.084;32.908;2023-08-17T21:00:35;11.98;;;5.20;;
72584;SDS011;60618;40.084;32.908;2023-08-17T21:03:02;11.20;;;6.60;;
72584;SDS011;60618;40.084;32.908;2023-08-17T21:05:30;14.73;;;6.67;;
72584;SDS011;60618;40.084;32.908;2023-08-17T21:07:58;9.30;;;5.88;;
72584;SDS011;60618;40.084;32.908;2023-08-17T21:10:25;16.85;;;7.57;;
72584;SDS011;60618;40.084;32.908;2023-08-17T21:12:52;12.00;;;5.80;;
72584;SDS011;60618;40.084;32.908;2023-08-17T21:15:19;9.23;;;5.63;;
72584;SDS011;60618;40.084;32.908;2023-08-17T21:17:46;10.07;;;6.13;;
72584;SDS011;60618;40.084;32.908;2023-08-17T21:20:13;12.70;;;7.15;;
72584;SDS011;60618;40.084;32.908;2023-08-17T21:22:47;12.07;;;6.68;;
72584;SDS011;60618;40.084;32.908;2023-08-17T21:25:15;9.95;;;6.25;;
72584;SDS011;60618;40.084;32.908;2023-08-17T21:27:42;11.88;;;6.30;;
72584;SDS011;60618;40.084;32.908;2023-08-17T21:30:09;11.10;;;6.33;;
72584;SDS011;60618;40.084;32.908;2023-08-17T21:32:36;9.85;;;6.40;;
72584;SDS011;60618;40.084;32.908;2023-08-17T21:35:04;10.15;;;6.25;;
72584;SDS011;60618;40.084;32.908;2023-08-17T21:37:31;11.68;;;6.70;;
72584;SDS011;60618;40.084;32.908;2023-08-17T21:39:58;11.05;;;6.45;;
72584;SDS011;60618;40.084;32.908;2023-08-17T21:42:25;12.37;;;6.63;;
72584;SDS011;60618;40.084;32.908;2023-08-17T21:44:53;11.95;;;7.05;;
72584;SDS011;60618;40.084;32.908;2023-08-17T21:47:20;9.90;;;6.50;;
72584;SDS011;60618;40.084;32.908;2023-08-17T21:49:47;10.43;;;6.60;;
72584;SDS011;60618;40.084;32.908;2023-08-17T21:52:14;10.27;;;6.50;;
72584;SDS011;60618;40.084;32.908;2023-08-17T21:54:41;13.10;;;6.73;;
72584;SDS011;60618;40.084;32.908;2023-08-17T21:57:08;14.00;;;6.35;;
72584;SDS011;60618;40.084;32.908;2023-08-17T21:59:35;12.85;;;6.13;;
72584;SDS011;60618;40.084;32.908;2023-08-17T22:02:02;16.35;;;6.90;;
72584;SDS011;60618;40.084;32.908;2023-08-17T22:04:30;14.18;;;6.50;;
72584;SDS011;60618;40.084;32.908;2023-08-17T22:06:57;11.57;;;6.50;;
72584;SDS011;60618;40.084;32.908;2023-08-17T22:09:24;11.27;;;6.10;;
72584;SDS011;60618;40.084;32.908;2023-08-17T22:11:51;13.15;;;6.50;;
72584;SDS011;60618;40.084;32.908;2023-08-17T22:14:18;11.23;;;6.18;;
72584;SDS011;60618;40.084;32.908;2023-08-17T22:16:45;10.15;;;6.15;;
72584;SDS011;60618;40.084;32.908;2023-08-17T22:19:11;13.20;;;6.60;;
72584;SDS011;60618;40.084;32.908;2023-08-17T22:21:39;12.05;;;6.68;;
72584;SDS011;60618;40.084;32.908;2023-08-17T22:24:06;11.18;;;6.07;;
72584;SDS011;60618;40.084;32.908;2023-08-17T22:26:33;12.18;;;6.38;;
72584;SDS011;60618;40.084;32.908;2023-08-17T22:29:00;9.80;;;6.60;;
72584;SDS011;60618;40.084;32.908;2023-08-17T22:31:27;15.57;;;6.53;;
72584;SDS011;60618;40.084;32.908;2023-08-17T22:33:54;11.80;;;6.55;;